WetterOnline ( https://www.wetteronline.ch )

Wetter aktuell Pinneberg

Aktuelles Wetter: Quickborn (17m)

6-stündlich | Neueste Meldungen
Ortszeit Temperatur Wetter
Do, 09.07. 20:00 13.2° C bedeckt
Do, 09.07. 14:00 11.7° C leichter Regen
Do, 09.07. 8:00 11.0° C leichter Regen
Do, 09.07. 2:00 7.4° C bedeckt
Mi, 08.07. 20:00 16.0° C leicht bewölkt
Mi, 08.07. 14:00 15.7° C bedeckt
Mi, 08.07. 8:00 12.7° C bedeckt
Mi, 08.07. 2:00 11.7° C bewölkt
Ortszeit Temperatur Wetter
Fr, 10.07. 1:30 12.3° C Sprühregen
Fr, 10.07. 1:20 12.3° C Sprühregen
Fr, 10.07. 1:10 12.3° C leichter Regen
Fr, 10.07. 1:00 12.3° C leichter Regen
Fr, 10.07. 0:50 12.3° C leichter Regen
Fr, 10.07. 0:40 12.3° C leichter Regen
Fr, 10.07. 0:30 12.4° C bedeckt
Fr, 10.07. 0:00 12.6° C Sprühregen
Do, 09.07. 22:00 13.1° C bedeckt
Ortszeit Relative Feuchte Sichtweite
Do, 09.07. 20:00 89% 60 km
Do, 09.07. 14:00 96% 13 km
Do, 09.07. 8:00 92% 17 km
Do, 09.07. 2:00 100% 20 km
Mi, 08.07. 20:00 58% 55 km
Mi, 08.07. 14:00 66% 50 km
Mi, 08.07. 8:00 83% 50 km
Mi, 08.07. 2:00 89% 50 km
Ortszeit Relative Feuchte Sichtweite
Fr, 10.07. 1:30 97% 14 km
Fr, 10.07. 1:20 97% -
Fr, 10.07. 1:10 97% -
Fr, 10.07. 1:00 96% 30 km
Fr, 10.07. 0:50 96% -
Fr, 10.07. 0:40 97% -
Fr, 10.07. 0:30 95% 28 km
Fr, 10.07. 0:00 96% 12 km
Do, 09.07. 22:00 92% 40 km
Ortszeit Niederschlagsmenge Niederschlagsart
Do, 09.07. 20:00 14 l/m2 in 12 Std. Regen
Do, 09.07. 14:00 13 l/m2 in 6 Std. Regen
Do, 09.07. 8:00 0.5 l/m2 in 12 Std. Regen
Do, 09.07. 2:00 0.0 l/m2 in 6 Std. -
Mi, 08.07. 20:00 0.6 l/m2 in 12 Std. -
Mi, 08.07. 14:00 0.6 l/m2 in 6 Std. Regen
Mi, 08.07. 8:00 0.1 l/m2 in 12 Std. Regen
Mi, 08.07. 2:00 0.1 l/m2 in 6 Std. Regen
Ortszeit Niederschlagsmenge Niederschlagsart
Fr, 10.07. 1:30 0.2 l/m2 in 1 Std. -
Fr, 10.07. 1:20 keine Meldung -
Fr, 10.07. 1:10 keine Meldung -
Fr, 10.07. 1:00 0.1 l/m2 in 1 Std. Regen
Fr, 10.07. 0:50 keine Meldung -
Fr, 10.07. 0:40 keine Meldung -
Fr, 10.07. 0:30 0.1 l/m2 in 1 Std. Schneeregen
Fr, 10.07. 0:00 0.1 l/m2 in 1 Std. Regen
Do, 09.07. 22:00 keine Meldung -
Ortszeit Stärke Spitze Richtung
km/h Bft. km/h Grad Sektor
Do, 09.07. 20:00 6 1 20 20° N
Do, 09.07. 14:00 11 2 22 40° NO
Do, 09.07. 8:00 4 1 7 90° O
Do, 09.07. 2:00 0 0 22 - -
Mi, 08.07. 20:00 14 3 32 290° W
Mi, 08.07. 14:00 14 3 32 290° W
Mi, 08.07. 8:00 6 1 19 230° SW
Mi, 08.07. 2:00 7 2 26 240° SW
Ortszeit Stärke Spitze Richtung
km/h Bft. km/h Grad Sektor
Fr, 10.07. 1:30 0 0 4 - -
Fr, 10.07. 1:20 2 1 - 20° N
Fr, 10.07. 1:10 0 0 - 110° O
Fr, 10.07. 1:00 4 1 4 60° NO
Fr, 10.07. 0:50 4 1 - 60° NO
Fr, 10.07. 0:40 4 1 - 90° O
Fr, 10.07. 0:30 2 1 4 30° NO
Fr, 10.07. 0:00 4 1 7 340° N
Do, 09.07. 22:00 4 1 7 60° NO
Ortszeit Untergrenze Bedeckung Gattung
total tief tief mittel hoch
Do, 09.07. 20:00 300 m 8/8 8/8 - - -
Do, 09.07. 14:00 150 m 8/8 8/8 - - -
Do, 09.07. 8:00 930 m 8/8 8/8 - - -
Do, 09.07. 2:00 5100 m 8/8 8/8 - - -
Mi, 08.07. 20:00 1110 m 2/8 1/8 - - -
Mi, 08.07. 14:00 1230 m 8/8 8/8 - - -
Mi, 08.07. 8:00 1800 m 8/8 8/8 - - -
Mi, 08.07. 2:00 1800 m 8/8 6/8 - - -
Ortszeit Bedeckungsgrad in Achtel und Wolkenuntergrenze
Fr, 10.07. 1:30 3(60m) 8(1380m) 8(1800m)
Fr, 10.07. 1:20 3(60m) 8(1380m) 8(1800m)
Fr, 10.07. 1:10 5(150m) 8(1500m) 8(2400m)
Fr, 10.07. 1:00 4(240m) 8(2700m) 8(5100m)
Fr, 10.07. 0:50 4(240m) 8(2700m) 8(5100m)
Fr, 10.07. 0:40 1(150m) 7(1500m) 8(2700m)
Fr, 10.07. 0:30 1(60m) 7(1140m) 8(1500m)
Fr, 10.07. 0:00 2(30m) 6(1380m) 8(1500m)
Do, 09.07. 22:00 8(510m)
Ortszeit Luftdruck NN (hPa) Tendenz (hPa in 3 Std.)
Do, 09.07. 20:00 1012 + 0,5
Do, 09.07. 14:00 1011 - 1,7
Do, 09.07. 8:00 1015 - 0,3
Do, 09.07. 2:00 1016 - 0,2
Mi, 08.07. 20:00 1015 + 0,1
Mi, 08.07. 14:00 1015 + 0,1
Mi, 08.07. 8:00 1014 - 0,3
Mi, 08.07. 2:00 1015 - 0,4
Ortszeit Luftdruck NN (hPa) Tendenz (hPa in 3 Std.)
Fr, 10.07. 1:30 1011 - 0,6
Fr, 10.07. 1:20 1011 keine Meldung
Fr, 10.07. 1:10 1011 keine Meldung
Fr, 10.07. 1:00 1011 - 0,4
Fr, 10.07. 0:50 1011 keine Meldung
Fr, 10.07. 0:40 1011 keine Meldung
Fr, 10.07. 0:30 1012 - 0,4
Fr, 10.07. 0:00 1012 + 0,1
Do, 09.07. 22:00 1012 + 0,3
Ortszeit Schneehöhe (cm)
Do, 09.07. 20:00 -
Do, 09.07. 14:00 -
Do, 09.07. 8:00 -
Do, 09.07. 2:00 -
Mi, 08.07. 20:00 -
Mi, 08.07. 14:00 -
Mi, 08.07. 8:00 -
Mi, 08.07. 2:00 -
Ortszeit Schneehöhe (cm)
Fr, 10.07. 1:30 -
Fr, 10.07. 1:20 -
Fr, 10.07. 1:10 -
Fr, 10.07. 1:00 -
Fr, 10.07. 0:50 -
Fr, 10.07. 0:40 -
Fr, 10.07. 0:30 -
Fr, 10.07. 0:00 -
Do, 09.07. 22:00 -
Link zu dieser Seite / Seite empfehlen

Das Wetter in ...